createdAt,value
2023-05-07T00:09:31.804Z,13.7
2023-05-07T00:14:00.831Z,13.7
2023-05-07T00:16:00.903Z,13.7
2023-05-07T00:18:00.841Z,13.7
2023-05-07T00:20:00.735Z,13.7
2023-05-07T00:22:00.852Z,13.6
2023-05-07T00:24:01.217Z,13.6
2023-05-07T00:26:01.163Z,13.6
2023-05-07T00:28:00.620Z,13.6
2023-05-07T00:30:01.608Z,13.6
2023-05-07T00:32:01.030Z,13.5
2023-05-07T00:34:00.683Z,13.6
2023-05-07T00:36:00.798Z,13.6
2023-05-07T00:38:01.654Z,13.6
2023-05-07T00:40:00.919Z,13.6
2023-05-07T00:42:00.732Z,13.5
2023-05-07T00:44:00.904Z,13.5
2023-05-07T00:46:01.292Z,13.5
2023-05-07T00:48:02.241Z,13.5
2023-05-07T00:50:01.168Z,13.5
2023-05-07T00:52:01.257Z,13.5
2023-05-07T00:54:02.480Z,13.5
2023-05-07T00:56:00.904Z,13.5
2023-05-07T00:58:00.665Z,13.5
2023-05-07T01:00:01.026Z,13.4
2023-05-07T01:02:01.153Z,13.4
2023-05-07T01:04:00.897Z,13.4
2023-05-07T01:06:02.162Z,13.4
2023-05-07T01:08:02.412Z,13.4
2023-05-07T01:10:01.905Z,13.4
2023-05-07T01:12:00.986Z,13.4
2023-05-07T01:14:01.727Z,13.4
2023-05-07T01:16:00.787Z,13.4
2023-05-07T01:18:00.684Z,13.4
2023-05-07T01:20:00.764Z,13.4
2023-05-07T01:22:07.266Z,13.3
2023-05-07T01:24:00.784Z,13.3
2023-05-07T01:26:00.751Z,13.3
2023-05-07T01:28:00.669Z,13.2
2023-05-07T01:30:01.142Z,13.2
2023-05-07T01:32:01.208Z,13.3
2023-05-07T01:34:02.880Z,13.3
2023-05-07T01:36:01.521Z,13.3
2023-05-07T01:38:01.748Z,13.3
2023-05-07T01:40:01.647Z,13.3
2023-05-07T01:42:01.031Z,13.2
2023-05-07T01:44:02.877Z,13.3
2023-05-07T01:46:02.683Z,13.2
2023-05-07T01:48:01.846Z,13.2
2023-05-07T01:50:00.836Z,13.2
2023-05-07T01:52:01.224Z,13.2
2023-05-07T01:54:00.848Z,13.1
2023-05-07T01:56:00.765Z,13.1
2023-05-07T01:58:00.731Z,13.1
2023-05-07T02:00:00.747Z,13.1
2023-05-07T02:02:00.782Z,13.0
2023-05-07T02:04:00.719Z,13.1
2023-05-07T02:06:00.653Z,13.1
2023-05-07T02:08:00.731Z,13.1
2023-05-07T02:10:00.800Z,13.1
2023-05-07T02:12:00.647Z,13.1
2023-05-07T02:14:00.740Z,13.1
2023-05-07T02:16:00.764Z,13.1
2023-05-07T02:18:02.262Z,13.1
2023-05-07T02:20:00.929Z,13.1
2023-05-07T02:22:00.694Z,13.0
2023-05-07T02:24:00.694Z,13.0
2023-05-07T02:26:00.794Z,13.0
2023-05-07T02:28:00.609Z,13.0
2023-05-07T02:30:01.111Z,13.0
2023-05-07T02:32:00.823Z,12.9
2023-05-07T02:34:00.909Z,12.9
2023-05-07T02:36:06.211Z,12.9
2023-05-07T02:38:00.668Z,12.9
2023-05-07T02:40:00.680Z,12.8
2023-05-07T02:42:00.705Z,12.8
2023-05-07T02:44:00.686Z,12.8
2023-05-07T02:46:01.789Z,12.8
2023-05-07T02:48:00.710Z,12.8
2023-05-07T02:50:00.919Z,12.8
2023-05-07T02:52:00.729Z,12.7
2023-05-07T02:54:00.691Z,12.8
2023-05-07T02:56:01.661Z,12.8
2023-05-07T02:58:00.617Z,12.8
2023-05-07T03:00:10.749Z,12.8
2023-05-07T03:02:00.875Z,12.8
2023-05-07T03:04:00.727Z,12.8
2023-05-07T03:06:00.939Z,12.8
2023-05-07T03:08:00.719Z,12.8
2023-05-07T03:10:01.251Z,12.8
2023-05-07T03:12:00.705Z,12.8
2023-05-07T03:14:01.041Z,12.7
2023-05-07T03:16:00.718Z,12.6
2023-05-07T03:18:00.641Z,12.6
2023-05-07T03:20:00.682Z,12.6
2023-05-07T03:22:00.886Z,12.6
2023-05-07T03:24:00.809Z,12.5
2023-05-07T03:26:00.966Z,12.5
2023-05-07T03:28:00.618Z,12.5
2023-05-07T03:30:00.841Z,12.6
2023-05-07T03:32:00.836Z,12.6
2023-05-07T03:34:00.804Z,12.6
2023-05-07T03:36:00.798Z,12.6
2023-05-07T03:38:01.099Z,12.6
2023-05-07T03:40:00.817Z,12.6
2023-05-07T03:42:00.739Z,12.6
2023-05-07T03:44:00.763Z,12.6
2023-05-07T03:46:00.874Z,12.6
2023-05-07T03:48:00.861Z,12.6
2023-05-07T03:50:01.095Z,12.6
2023-05-07T03:52:00.893Z,12.5
2023-05-07T03:54:00.692Z,12.5
2023-05-07T03:56:00.662Z,12.5
2023-05-07T03:58:00.589Z,12.5
2023-05-07T04:00:00.789Z,12.5
2023-05-07T04:02:02.893Z,12.5
2023-05-07T04:04:00.842Z,12.5
2023-05-07T04:06:00.688Z,12.5
2023-05-07T04:08:01.150Z,12.4
2023-05-07T04:10:00.741Z,12.4
2023-05-07T04:12:00.906Z,12.5
2023-05-07T04:14:00.851Z,12.5
2023-05-07T04:16:02.496Z,12.5
2023-05-07T04:18:00.627Z,12.5
2023-05-07T04:20:00.658Z,12.5
2023-05-07T04:22:00.697Z,12.5
2023-05-07T04:24:02.811Z,12.5
2023-05-07T04:26:00.822Z,12.5
2023-05-07T04:28:00.704Z,12.6
2023-05-07T04:30:00.686Z,12.6
2023-05-07T04:32:00.878Z,12.6
2023-05-07T04:34:00.670Z,12.6
2023-05-07T04:36:02.500Z,12.6
2023-05-07T04:38:00.815Z,12.6
2023-05-07T04:40:00.766Z,12.6
2023-05-07T04:42:00.811Z,12.6
2023-05-07T04:44:00.680Z,12.6
2023-05-07T04:46:01.082Z,12.6
2023-05-07T04:48:00.946Z,12.7
2023-05-07T04:50:00.852Z,12.7
2023-05-07T04:52:00.676Z,12.8
2023-05-07T04:54:00.857Z,12.8
2023-05-07T04:56:01.052Z,12.8
2023-05-07T04:58:00.900Z,12.8
2023-05-07T05:00:00.894Z,12.8
2023-05-07T05:02:00.928Z,12.9
2023-05-07T05:04:00.866Z,12.9
2023-05-07T05:06:00.686Z,12.9
2023-05-07T05:08:00.697Z,13.0
2023-05-07T05:10:01.320Z,13.1
2023-05-07T05:12:00.869Z,13.1
2023-05-07T05:14:00.865Z,13.2
2023-05-07T05:16:00.963Z,13.2
2023-05-07T05:18:00.781Z,13.2
2023-05-07T05:20:00.706Z,13.2
2023-05-07T05:22:00.873Z,13.2
2023-05-07T05:24:00.697Z,13.2
2023-05-07T05:26:00.770Z,13.2
2023-05-07T05:28:00.658Z,13.2
2023-05-07T05:30:00.776Z,13.2
2023-05-07T05:32:00.814Z,13.3
2023-05-07T05:34:02.314Z,13.2
2023-05-07T05:36:00.657Z,13.2
2023-05-07T05:38:01.039Z,13.2
2023-05-07T05:40:00.897Z,13.2
2023-05-07T05:42:00.740Z,13.3
2023-05-07T05:44:00.757Z,13.3
2023-05-07T05:46:01.032Z,13.4
2023-05-07T05:48:00.815Z,13.4
2023-05-07T05:50:01.283Z,13.4
2023-05-07T05:52:00.748Z,13.6
2023-05-07T05:54:00.781Z,13.7
2023-05-07T05:56:01.028Z,13.7
2023-05-07T05:58:00.692Z,13.9
2023-05-07T06:00:00.966Z,14.0
2023-05-07T06:02:00.825Z,14.1
2023-05-07T06:04:00.806Z,14.1
2023-05-07T06:06:00.682Z,14.1
2023-05-07T06:08:01.128Z,14.1
2023-05-07T06:10:00.864Z,14.1
2023-05-07T06:12:01.109Z,14.2
2023-05-07T06:14:00.952Z,14.2
2023-05-07T06:16:00.846Z,14.0
2023-05-07T06:18:00.612Z,14.0
2023-05-07T06:20:00.844Z,14.0
2023-05-07T06:22:00.760Z,13.9
2023-05-07T06:24:00.734Z,13.9
2023-05-07T06:26:00.778Z,14.0
2023-05-07T06:28:00.810Z,14.1
2023-05-07T06:30:00.808Z,14.2
2023-05-07T06:32:06.369Z,14.3
2023-05-07T06:34:00.745Z,14.4
2023-05-07T06:36:00.650Z,14.6
2023-05-07T06:38:01.038Z,14.7
2023-05-07T06:40:00.824Z,14.7
2023-05-07T06:42:01.351Z,14.8
2023-05-07T06:44:00.971Z,14.9
2023-05-07T06:46:00.730Z,14.9
2023-05-07T06:48:00.709Z,14.8
2023-05-07T06:50:00.971Z,14.9
2023-05-07T06:52:00.743Z,15.0
2023-05-07T06:54:00.754Z,15.1
2023-05-07T06:56:00.757Z,15.3
2023-05-07T06:58:00.620Z,15.5
2023-05-07T07:00:00.730Z,15.6
2023-05-07T07:02:00.847Z,15.7
2023-05-07T07:04:00.716Z,15.9
2023-05-07T07:06:01.174Z,15.9
2023-05-07T07:08:00.583Z,16.0
2023-05-07T07:10:00.727Z,15.9
2023-05-07T07:12:00.691Z,15.9
2023-05-07T07:14:01.303Z,16.0
2023-05-07T07:16:00.933Z,15.9
2023-05-07T07:18:00.898Z,15.9
2023-05-07T07:20:00.707Z,16.1
2023-05-07T07:22:00.675Z,16.3
2023-05-07T07:24:00.700Z,16.4
2023-05-07T07:26:01.112Z,16.5
2023-05-07T07:28:00.939Z,16.4
2023-05-07T07:30:00.690Z,16.5
2023-05-07T07:32:01.027Z,16.5
2023-05-07T07:34:00.730Z,16.6
2023-05-07T07:36:00.710Z,16.8
2023-05-07T07:38:01.187Z,16.7
2023-05-07T07:40:00.948Z,16.7
2023-05-07T07:42:01.123Z,16.7
2023-05-07T07:44:00.689Z,16.6
2023-05-07T07:46:00.725Z,16.6
2023-05-07T07:48:00.711Z,16.5
2023-05-07T07:50:01.118Z,16.5
2023-05-07T07:52:00.729Z,16.4
2023-05-07T07:54:00.781Z,16.5
2023-05-07T07:56:01.479Z,16.7
2023-05-07T07:58:00.575Z,16.9
2023-05-07T08:00:00.812Z,16.9
2023-05-07T08:02:00.868Z,16.9
2023-05-07T08:04:00.806Z,17.0
2023-05-07T08:06:00.813Z,17.0
2023-05-07T08:08:00.658Z,17.1
2023-05-07T08:10:00.775Z,17.0
2023-05-07T08:12:00.853Z,17.1
2023-05-07T08:14:00.896Z,17.3
2023-05-07T08:16:00.678Z,17.5
2023-05-07T08:18:01.807Z,17.5
2023-05-07T08:20:00.743Z,17.5
2023-05-07T08:22:00.701Z,17.5
2023-05-07T08:24:00.681Z,17.5
2023-05-07T08:26:01.012Z,17.4
2023-05-07T08:28:01.185Z,17.4
2023-05-07T08:30:01.014Z,17.2
2023-05-07T08:32:00.818Z,17.4
2023-05-07T08:34:00.807Z,17.4
2023-05-07T08:36:00.818Z,17.6
2023-05-07T08:38:00.928Z,17.6
2023-05-07T08:40:00.923Z,17.6
2023-05-07T08:42:01.192Z,17.7
2023-05-07T08:44:03.394Z,17.8
2023-05-07T08:46:01.497Z,17.8
2023-05-07T08:48:02.621Z,17.7
2023-05-07T08:50:01.535Z,17.8
2023-05-07T08:52:01.396Z,18.0
2023-05-07T08:54:01.978Z,18.2
2023-05-07T08:56:02.426Z,18.4
2023-05-07T08:58:00.804Z,18.6
2023-05-07T09:00:00.784Z,18.5
2023-05-07T09:02:00.937Z,18.4
2023-05-07T09:04:01.095Z,18.3
2023-05-07T09:06:00.699Z,18.5
2023-05-07T09:08:02.423Z,18.7
2023-05-07T09:10:01.573Z,18.7
2023-05-07T09:12:01.166Z,18.7
2023-05-07T09:14:01.080Z,18.5
2023-05-07T09:16:10.656Z,18.5
2023-05-07T09:18:00.782Z,18.5
2023-05-07T09:20:02.559Z,18.6
2023-05-07T09:22:01.807Z,18.4
2023-05-07T09:24:00.888Z,18.4
2023-05-07T09:26:01.847Z,18.5
2023-05-07T09:28:02.498Z,18.5
2023-05-07T09:30:03.482Z,18.5
2023-05-07T09:32:01.342Z,18.5
2023-05-07T09:34:00.682Z,18.5
2023-05-07T09:36:02.818Z,18.5
2023-05-07T09:38:03.718Z,18.6
2023-05-07T09:40:01.612Z,18.6
2023-05-07T09:42:00.975Z,18.6
2023-05-07T09:44:01.560Z,18.8
2023-05-07T09:46:05.775Z,18.8
2023-05-07T09:48:05.346Z,18.8
2023-05-07T09:50:05.421Z,18.9
2023-05-07T09:52:02.230Z,18.9
2023-05-07T09:54:02.276Z,18.9
2023-05-07T09:56:03.589Z,18.8
2023-05-07T09:58:01.785Z,18.7
2023-05-07T10:00:03.264Z,18.8
2023-05-07T10:02:03.504Z,19.0
2023-05-07T10:04:02.252Z,19.1
2023-05-07T10:06:01.525Z,19.3
2023-05-07T10:08:03.218Z,19.5
2023-05-07T10:10:02.537Z,19.8
2023-05-07T10:12:01.214Z,20.0
2023-05-07T10:14:03.514Z,20.1
2023-05-07T10:16:01.258Z,20.2
2023-05-07T10:18:01.967Z,20.0
2023-05-07T10:20:02.594Z,20.1
2023-05-07T10:22:04.739Z,20.1
2023-05-07T10:24:05.025Z,20.2
2023-05-07T10:26:03.781Z,20.3
2023-05-07T10:28:05.047Z,20.4
2023-05-07T10:30:12.365Z,20.4
2023-05-07T10:32:14.004Z,20.7
2023-05-07T10:34:08.002Z,21.0
2023-05-07T10:36:02.002Z,21.2
2023-05-07T10:38:00.927Z,21.4
2023-05-07T10:40:01.313Z,21.4
2023-05-07T10:42:08.187Z,21.3
2023-05-07T10:44:00.729Z,21.3
2023-05-07T10:46:11.563Z,21.4
2023-05-07T10:48:27.184Z,21.5
2023-05-07T10:50:20.517Z,21.3
2023-05-07T10:52:11.680Z,21.5
2023-05-07T10:54:20.467Z,21.5
2023-05-07T10:56:20.471Z,21.3
2023-05-07T10:58:31.313Z,21.2
2023-05-07T11:00:01.092Z,21.4
2023-05-07T11:02:02.323Z,21.8
2023-05-07T11:04:13.176Z,22.0
2023-05-07T11:06:11.698Z,22.2
2023-05-07T11:08:02.567Z,22.1
2023-05-07T11:10:02.870Z,21.7
2023-05-07T11:12:00.839Z,21.5
2023-05-07T11:14:00.959Z,21.3
2023-05-07T11:16:01.170Z,21.2
2023-05-07T11:18:00.791Z,21.1
2023-05-07T11:20:02.373Z,21.2
2023-05-07T11:22:00.883Z,21.6
2023-05-07T11:24:01.780Z,22.0
2023-05-07T11:26:03.303Z,22.1
2023-05-07T11:28:05.162Z,22.2
2023-05-07T11:30:00.858Z,22.4
2023-05-07T11:32:00.731Z,22.5
2023-05-07T11:34:01.113Z,22.7
2023-05-07T11:36:03.345Z,22.6
2023-05-07T11:38:01.249Z,22.2
2023-05-07T11:40:03.364Z,22.1
2023-05-07T11:42:00.711Z,21.7
2023-05-07T11:44:00.660Z,21.9
2023-05-07T11:46:10.441Z,22.1
2023-05-07T11:48:01.832Z,22.3
2023-05-07T11:50:04.520Z,22.1
2023-05-07T11:52:00.723Z,22.5
2023-05-07T11:54:03.705Z,22.8
2023-05-07T11:56:00.667Z,22.5
2023-05-07T11:58:00.688Z,22.4
2023-05-07T12:00:01.499Z,22.2
2023-05-07T12:02:00.758Z,22.1
2023-05-07T12:04:03.018Z,22.1
2023-05-07T12:06:05.365Z,21.8
2023-05-07T12:08:00.677Z,22.0
2023-05-07T12:10:04.599Z,22.0
2023-05-07T12:12:03.256Z,21.8
2023-05-07T12:14:00.775Z,22.0
2023-05-07T12:16:01.202Z,22.4
2023-05-07T12:18:01.271Z,22.8
2023-05-07T12:20:01.203Z,23.1
2023-05-07T12:22:03.469Z,23.4
2023-05-07T12:24:01.697Z,23.0
2023-05-07T12:26:01.410Z,23.6
2023-05-07T12:28:01.074Z,23.6
2023-05-07T12:30:00.696Z,22.9
2023-05-07T12:32:00.865Z,22.4
2023-05-07T12:34:00.897Z,22.2
2023-05-07T12:36:05.358Z,22.0
2023-05-07T12:38:01.028Z,21.9
2023-05-07T12:40:04.454Z,22.5
2023-05-07T12:42:00.889Z,22.9
2023-05-07T12:44:00.649Z,22.7
2023-05-07T12:46:04.154Z,22.5
2023-05-07T12:48:02.039Z,22.6
2023-05-07T12:50:01.063Z,23.1
2023-05-07T12:52:01.041Z,23.0
2023-05-07T12:54:00.702Z,22.7
2023-05-07T12:56:00.831Z,22.6
2023-05-07T12:58:01.475Z,22.8
2023-05-07T13:00:00.717Z,23.3
2023-05-07T13:02:00.837Z,23.6
2023-05-07T13:04:02.991Z,23.7
2023-05-07T13:06:02.946Z,23.8
2023-05-07T13:08:00.733Z,23.5
2023-05-07T13:10:00.824Z,24.0
2023-05-07T13:12:01.320Z,24.3
2023-05-07T13:14:00.710Z,24.5
2023-05-07T13:16:00.898Z,24.5
2023-05-07T13:18:00.812Z,24.3
2023-05-07T13:20:00.809Z,23.9
2023-05-07T13:22:00.704Z,24.3
2023-05-07T13:24:00.868Z,24.6
2023-05-07T13:26:04.151Z,24.0
2023-05-07T13:28:10.241Z,23.4
2023-05-07T13:30:00.936Z,22.9
2023-05-07T13:32:00.721Z,22.7
2023-05-07T13:34:00.737Z,22.1
2023-05-07T13:36:00.857Z,21.9
2023-05-07T13:38:00.663Z,21.8
2023-05-07T13:40:00.863Z,21.7
2023-05-07T13:42:00.694Z,21.5
2023-05-07T13:44:00.729Z,21.5
2023-05-07T13:46:01.018Z,21.3
2023-05-07T13:48:01.523Z,21.2
2023-05-07T13:50:00.688Z,21.2
2023-05-07T13:52:00.700Z,21.2
2023-05-07T13:54:00.721Z,21.2
2023-05-07T13:56:01.415Z,21.2
2023-05-07T13:58:02.188Z,21.1
2023-05-07T14:00:00.744Z,21.3
2023-05-07T14:02:00.803Z,21.5
2023-05-07T14:04:00.977Z,21.8
2023-05-07T14:06:00.660Z,21.9
2023-05-07T14:08:00.593Z,22.0
2023-05-07T14:10:00.692Z,22.3
2023-05-07T14:12:00.790Z,22.3
2023-05-07T14:14:00.834Z,22.0
2023-05-07T14:16:00.701Z,21.9
2023-05-07T14:18:00.643Z,21.9
2023-05-07T14:20:00.692Z,21.6
2023-05-07T14:22:01.897Z,21.5
2023-05-07T14:24:00.699Z,21.6
2023-05-07T14:26:00.753Z,21.4
2023-05-07T14:28:00.780Z,21.4
2023-05-07T14:30:00.980Z,21.4
2023-05-07T14:32:01.159Z,21.4
2023-05-07T14:34:00.724Z,21.5
2023-05-07T14:36:00.668Z,21.6
2023-05-07T14:38:00.626Z,21.4
2023-05-07T14:40:00.786Z,21.4
2023-05-07T14:42:00.675Z,21.5
2023-05-07T14:44:00.844Z,21.5
2023-05-07T14:46:00.787Z,21.5
2023-05-07T14:48:00.601Z,21.4
2023-05-07T14:50:00.702Z,21.5
2023-05-07T14:52:00.704Z,21.5
2023-05-07T14:54:00.712Z,21.6
2023-05-07T14:56:00.707Z,21.7
2023-05-07T14:58:00.628Z,21.8
2023-05-07T15:00:00.962Z,21.8
2023-05-07T15:02:01.902Z,21.7
2023-05-07T15:04:00.990Z,21.9
2023-05-07T15:06:01.414Z,22.0
2023-05-07T15:08:00.733Z,22.2
2023-05-07T15:10:00.778Z,22.2
2023-05-07T15:12:00.668Z,22.1
2023-05-07T15:14:00.954Z,22.3
2023-05-07T15:16:00.726Z,22.6
2023-05-07T15:18:00.655Z,22.7
2023-05-07T15:20:00.857Z,22.7
2023-05-07T15:22:00.699Z,22.6
2023-05-07T15:24:00.930Z,22.4
2023-05-07T15:26:01.072Z,22.2
2023-05-07T15:28:00.662Z,22.1
2023-05-07T15:30:00.754Z,22.2
2023-05-07T15:32:00.726Z,22.3
2023-05-07T15:34:00.683Z,22.2
2023-05-07T15:36:00.939Z,22.3
2023-05-07T15:38:00.777Z,22.3
2023-05-07T15:40:01.012Z,22.2
2023-05-07T15:42:04.700Z,22.1
2023-05-07T15:44:00.680Z,22.1
2023-05-07T15:46:00.824Z,22.0
2023-05-07T15:48:00.690Z,22.0
2023-05-07T15:50:00.897Z,21.9
2023-05-07T15:52:00.765Z,22.1
2023-05-07T15:54:00.671Z,22.1
2023-05-07T15:56:00.670Z,22.2
2023-05-07T15:58:01.009Z,22.0
2023-05-07T16:00:01.174Z,21.9
2023-05-07T16:02:01.236Z,21.6
2023-05-07T16:04:00.793Z,21.5
2023-05-07T16:06:00.901Z,21.2
2023-05-07T16:08:00.869Z,21.1
2023-05-07T16:10:00.722Z,20.9
2023-05-07T16:12:00.730Z,20.7
2023-05-07T16:14:00.788Z,20.7
2023-05-07T16:16:00.867Z,20.5
2023-05-07T16:18:00.743Z,20.6
2023-05-07T16:20:01.655Z,20.4
2023-05-07T16:22:00.898Z,20.4
2023-05-07T16:24:00.732Z,20.3
2023-05-07T16:26:00.904Z,20.2
2023-05-07T16:28:00.777Z,20.2
2023-05-07T16:30:00.885Z,20.2
2023-05-07T16:32:01.272Z,20.1
2023-05-07T16:34:01.156Z,20.1
2023-05-07T16:36:00.740Z,20.0
2023-05-07T16:38:00.700Z,20.0
2023-05-07T16:40:01.150Z,20.0
2023-05-07T16:42:00.671Z,19.9
2023-05-07T16:44:00.869Z,19.9
2023-05-07T16:46:00.896Z,19.9
2023-05-07T16:48:00.855Z,19.8
2023-05-07T16:50:01.340Z,19.8
2023-05-07T16:52:00.711Z,19.8
2023-05-07T16:54:01.221Z,19.9
2023-05-07T16:56:03.899Z,19.9
2023-05-07T16:58:00.602Z,19.9
2023-05-07T17:00:01.027Z,19.8
2023-05-07T17:02:00.991Z,19.8
2023-05-07T17:04:00.788Z,19.7
2023-05-07T17:06:00.823Z,19.7
2023-05-07T17:08:00.696Z,19.6
2023-05-07T17:10:01.555Z,19.6
2023-05-07T17:12:00.899Z,19.6
2023-05-07T17:14:02.438Z,19.6
2023-05-07T17:16:00.799Z,19.5
2023-05-07T17:18:00.830Z,19.5
2023-05-07T17:20:00.794Z,19.5
2023-05-07T17:22:00.715Z,19.5
2023-05-07T17:24:00.697Z,19.4
2023-05-07T17:26:00.826Z,19.4
2023-05-07T17:28:00.636Z,19.3
2023-05-07T17:30:00.903Z,19.2
2023-05-07T17:32:01.018Z,19.2
2023-05-07T17:34:00.932Z,19.1
2023-05-07T17:36:00.965Z,19.1
2023-05-07T17:38:01.560Z,19.0
2023-05-07T17:40:00.922Z,19.0
2023-05-07T17:42:00.722Z,18.9
2023-05-07T17:44:00.786Z,18.8
2023-05-07T17:46:00.836Z,18.8
2023-05-07T17:48:00.685Z,18.7
2023-05-07T17:50:02.211Z,18.7
2023-05-07T17:52:00.729Z,18.8
2023-05-07T17:54:00.693Z,18.7
2023-05-07T17:56:00.874Z,18.6
2023-05-07T17:58:00.603Z,18.4
2023-05-07T18:00:01.173Z,18.4
2023-05-07T18:02:00.893Z,18.4
2023-05-07T18:04:01.379Z,18.1
2023-05-07T18:06:00.768Z,17.6
2023-05-07T18:08:00.649Z,17.5
2023-05-07T18:10:00.686Z,17.5
2023-05-07T18:12:00.695Z,17.4
2023-05-07T18:14:00.908Z,17.1
2023-05-07T18:16:00.824Z,16.9
2023-05-07T18:18:00.663Z,16.8
2023-05-07T18:20:00.884Z,16.8
2023-05-07T18:22:01.382Z,16.7
2023-05-07T18:24:00.838Z,16.5
2023-05-07T18:26:00.705Z,16.5
2023-05-07T18:28:00.672Z,16.5
2023-05-07T18:30:00.724Z,16.5
2023-05-07T18:32:00.779Z,16.4
2023-05-07T18:34:00.675Z,16.3
2023-05-07T18:36:01.368Z,16.3
2023-05-07T18:38:01.045Z,16.3
2023-05-07T18:40:00.831Z,16.3
2023-05-07T18:42:00.927Z,16.4
2023-05-07T18:44:00.889Z,16.4
2023-05-07T18:46:00.855Z,16.4
2023-05-07T18:48:00.636Z,16.4
2023-05-07T18:50:00.852Z,16.4
2023-05-07T18:52:01.417Z,16.3
2023-05-07T18:54:00.824Z,16.3
2023-05-07T18:56:00.704Z,16.2
2023-05-07T18:58:00.769Z,16.1
2023-05-07T19:00:00.666Z,16.1
2023-05-07T19:02:00.737Z,16.1
2023-05-07T19:04:00.776Z,16.1
2023-05-07T19:06:01.250Z,16.0
2023-05-07T19:08:00.625Z,16.0
2023-05-07T19:10:05.520Z,16.0
2023-05-07T19:12:00.694Z,16.0
2023-05-07T19:14:03.679Z,16.0
2023-05-07T19:16:00.691Z,16.0
2023-05-07T19:18:00.952Z,16.0
2023-05-07T19:20:00.744Z,16.0
2023-05-07T19:22:00.807Z,16.0
2023-05-07T19:24:00.815Z,16.1
2023-05-07T19:26:00.977Z,16.0
2023-05-07T19:28:00.591Z,16.0
2023-05-07T19:30:00.865Z,16.0
2023-05-07T19:32:03.670Z,16.1
2023-05-07T19:34:00.777Z,16.0
2023-05-07T19:36:00.671Z,15.9
2023-05-07T19:38:01.234Z,15.9
2023-05-07T19:40:00.739Z,15.9
2023-05-07T19:42:00.702Z,15.9
2023-05-07T19:44:00.972Z,15.8
2023-05-07T19:46:01.054Z,15.7
2023-05-07T19:48:00.693Z,15.6
2023-05-07T19:50:00.852Z,15.6
2023-05-07T19:52:00.803Z,15.5
2023-05-07T19:54:00.698Z,15.5
2023-05-07T19:56:03.153Z,15.5
2023-05-07T19:58:00.770Z,15.4
2023-05-07T20:00:00.768Z,15.3
2023-05-07T20:02:00.774Z,15.4
2023-05-07T20:04:00.859Z,15.4
2023-05-07T20:06:01.610Z,15.4
2023-05-07T20:08:00.714Z,15.3
2023-05-07T20:10:00.679Z,15.3
2023-05-07T20:12:00.698Z,15.2
2023-05-07T20:14:00.772Z,15.1
2023-05-07T20:16:01.102Z,15.2
2023-05-07T20:18:00.744Z,15.2
2023-05-07T20:20:00.983Z,15.2
2023-05-07T20:22:00.686Z,15.1
2023-05-07T20:24:00.716Z,15.1
2023-05-07T20:26:00.904Z,15.1
2023-05-07T20:28:00.692Z,15.0
2023-05-07T20:30:00.780Z,14.9
2023-05-07T20:32:01.084Z,14.8
2023-05-07T20:34:01.084Z,14.8
2023-05-07T20:36:00.799Z,14.7
2023-05-07T20:38:00.760Z,14.7
2023-05-07T20:40:01.573Z,14.7
2023-05-07T20:42:00.664Z,14.8
2023-05-07T20:44:00.781Z,14.7
2023-05-07T20:46:01.363Z,14.5
2023-05-07T20:48:00.697Z,14.5
2023-05-07T20:50:00.836Z,14.5
2023-05-07T20:52:00.868Z,14.5
2023-05-07T20:54:00.735Z,14.4
2023-05-07T20:56:00.733Z,14.3
2023-05-07T20:58:00.648Z,14.4
2023-05-07T21:00:01.101Z,14.4
2023-05-07T21:02:01.235Z,14.4
2023-05-07T21:04:00.971Z,14.3
2023-05-07T21:06:01.086Z,14.2
2023-05-07T21:08:00.733Z,14.3
2023-05-07T21:10:00.932Z,14.3
2023-05-07T21:12:00.946Z,14.3
2023-05-07T21:14:00.745Z,14.1
2023-05-07T21:16:00.725Z,14.1
2023-05-07T21:18:00.772Z,14.1
2023-05-07T21:20:00.848Z,14.1
2023-05-07T21:22:02.023Z,14.1
2023-05-07T21:24:00.854Z,14.1
2023-05-07T21:26:01.365Z,14.1
2023-05-07T21:28:04.227Z,14.1
2023-05-07T21:30:00.781Z,14.1
2023-05-07T21:32:00.746Z,14.0
2023-05-07T21:34:00.692Z,13.9
2023-05-07T21:36:00.977Z,13.8
2023-05-07T21:38:00.999Z,13.8
2023-05-07T21:40:00.712Z,13.7
2023-05-07T21:42:00.681Z,13.6
2023-05-07T21:44:00.755Z,13.5
2023-05-07T21:46:00.741Z,13.5
2023-05-07T21:48:00.691Z,13.5
2023-05-07T21:50:00.708Z,13.4
2023-05-07T21:52:00.673Z,13.4
2023-05-07T21:54:00.706Z,13.3
2023-05-07T21:56:00.717Z,13.4
2023-05-07T21:58:05.624Z,13.4
2023-05-07T22:00:00.908Z,13.3
2023-05-07T22:02:00.742Z,13.3
2023-05-07T22:04:00.836Z,13.3
2023-05-07T22:06:00.786Z,13.4
2023-05-07T22:08:00.694Z,13.4
2023-05-07T22:10:00.815Z,13.4
2023-05-07T22:12:00.898Z,13.4
2023-05-07T22:14:00.907Z,13.2
2023-05-07T22:16:00.761Z,13.2
2023-05-07T22:18:00.866Z,13.0
2023-05-07T22:20:00.799Z,13.1
2023-05-07T22:22:00.967Z,13.1
2023-05-07T22:24:00.648Z,13.1
2023-05-07T22:26:00.856Z,13.2
2023-05-07T22:28:00.809Z,13.1
2023-05-07T22:30:00.688Z,13.1
2023-05-07T22:32:00.743Z,13.2
2023-05-07T22:34:00.813Z,13.3
2023-05-07T22:36:01.731Z,13.3
2023-05-07T22:38:00.785Z,13.2
2023-05-07T22:40:00.823Z,13.2
2023-05-07T22:42:00.729Z,13.1
2023-05-07T22:44:00.671Z,13.0
2023-05-07T22:46:01.241Z,13.0
2023-05-07T22:48:00.724Z,13.0
2023-05-07T22:50:00.698Z,12.9
2023-05-07T22:52:00.817Z,13.0
2023-05-07T22:54:00.717Z,13.1
2023-05-07T22:56:03.223Z,13.1
2023-05-07T22:58:00.750Z,13.1
2023-05-07T23:00:00.712Z,13.1
2023-05-07T23:02:00.880Z,13.0
2023-05-07T23:04:00.719Z,13.0
2023-05-07T23:06:00.664Z,13.0
2023-05-07T23:08:00.739Z,13.0
2023-05-07T23:10:01.256Z,13.0
2023-05-07T23:12:00.639Z,13.0
2023-05-07T23:14:00.886Z,12.9
2023-05-07T23:16:00.768Z,12.9
2023-05-07T23:18:00.728Z,12.9
2023-05-07T23:20:00.710Z,12.9
2023-05-07T23:22:00.689Z,12.8
2023-05-07T23:24:00.705Z,12.8
2023-05-07T23:26:01.025Z,12.8
2023-05-07T23:28:00.728Z,12.7
2023-05-07T23:30:00.890Z,12.7
2023-05-07T23:32:01.129Z,12.8
2023-05-07T23:34:00.800Z,12.8
2023-05-07T23:36:01.642Z,12.9
2023-05-07T23:38:00.901Z,12.8
2023-05-07T23:40:01.008Z,12.8
2023-05-07T23:42:00.673Z,12.8
2023-05-07T23:44:00.715Z,12.8
2023-05-07T23:46:00.860Z,12.8
2023-05-07T23:48:00.817Z,12.8
2023-05-07T23:50:00.821Z,12.8
2023-05-07T23:52:00.711Z,12.7
2023-05-07T23:54:00.847Z,12.7
2023-05-07T23:56:00.712Z,12.7
2023-05-07T23:58:00.813Z,12.7
